sensor_id;sensor_type;location;lat;lon;timestamp;temperature;humidity
60860;DHT22;46694;54.382;9.708;2022-10-16T00:02:19;13.60;99.90
60860;DHT22;46694;54.382;9.708;2022-10-16T00:04:58;13.50;99.90
60860;DHT22;46694;54.382;9.708;2022-10-16T00:11:42;13.50;99.90
60860;DHT22;46694;54.382;9.708;2022-10-16T00:14:21;13.40;99.90
60860;DHT22;46694;54.382;9.708;2022-10-16T00:17:01;13.40;99.90
60860;DHT22;46694;54.382;9.708;2022-10-16T00:19:40;13.40;99.90
60860;DHT22;46694;54.382;9.708;2022-10-16T00:22:20;13.40;99.90
60860;DHT22;46694;54.382;9.708;2022-10-16T00:24:59;13.40;99.90
60860;DHT22;46694;54.382;9.708;2022-10-16T00:27:39;13.40;99.90
60860;DHT22;46694;54.382;9.708;2022-10-16T00:30:18;13.40;99.90
60860;DHT22;46694;54.382;9.708;2022-10-16T00:32:58;13.30;99.90
60860;DHT22;46694;54.382;9.708;2022-10-16T00:35:38;13.30;99.90
60860;DHT22;46694;54.382;9.708;2022-10-16T00:38:17;13.30;99.90
60860;DHT22;46694;54.382;9.708;2022-10-16T00:40:57;13.30;99.90
60860;DHT22;46694;54.382;9.708;2022-10-16T00:43:55;13.30;99.90
60860;DHT22;46694;54.382;9.708;2022-10-16T00:46:39;13.30;99.90
60860;DHT22;46694;54.382;9.708;2022-10-16T00:49:20;13.20;99.90
60860;DHT22;46694;54.382;9.708;2022-10-16T00:52:00;13.20;99.90
60860;DHT22;46694;54.382;9.708;2022-10-16T00:54:39;13.20;99.90
60860;DHT22;46694;54.382;9.708;2022-10-16T00:57:19;13.20;99.90
60860;DHT22;46694;54.382;9.708;2022-10-16T01:00:00;13.20;99.90
60860;DHT22;46694;54.382;9.708;2022-10-16T01:02:39;13.20;99.90
60860;DHT22;46694;54.382;9.708;2022-10-16T01:05:20;13.10;99.90
60860;DHT22;46694;54.382;9.708;2022-10-16T01:08:18;13.20;99.90
60860;DHT22;46694;54.382;9.708;2022-10-16T01:11:31;13.20;99.90
60860;DHT22;46694;54.382;9.708;2022-10-16T01:14:30;13.10;99.90
60860;DHT22;46694;54.382;9.708;2022-10-16T01:17:36;13.10;99.90
60860;DHT22;46694;54.382;9.708;2022-10-16T01:23:21;13.10;99.90
60860;DHT22;46694;54.382;9.708;2022-10-16T01:29:07;13.10;99.90
60860;DHT22;46694;54.382;9.708;2022-10-16T01:31:55;13.00;99.90
60860;DHT22;46694;54.382;9.708;2022-10-16T01:37:59;13.00;99.90
60860;DHT22;46694;54.382;9.708;2022-10-16T01:40:45;13.00;99.90
60860;DHT22;46694;54.382;9.708;2022-10-16T01:43:35;13.00;99.90
60860;DHT22;46694;54.382;9.708;2022-10-16T01:46:18;13.00;99.90
60860;DHT22;46694;54.382;9.708;2022-10-16T01:49:02;13.00;99.90
60860;DHT22;46694;54.382;9.708;2022-10-16T01:51:44;13.00;99.90
60860;DHT22;46694;54.382;9.708;2022-10-16T01:54:28;13.00;99.90
60860;DHT22;46694;54.382;9.708;2022-10-16T01:57:10;13.00;99.90
60860;DHT22;46694;54.382;9.708;2022-10-16T01:59:54;13.00;99.90
60860;DHT22;46694;54.382;9.708;2022-10-16T02:02:36;13.00;99.90
60860;DHT22;46694;54.382;9.708;2022-10-16T02:05:24;13.00;99.90
60860;DHT22;46694;54.382;9.708;2022-10-16T02:08:07;13.00;99.90
60860;DHT22;46694;54.382;9.708;2022-10-16T02:10:46;13.00;99.90
60860;DHT22;46694;54.382;9.708;2022-10-16T02:13:33;13.00;99.90
60860;DHT22;46694;54.382;9.708;2022-10-16T02:16:17;13.00;99.90
60860;DHT22;46694;54.382;9.708;2022-10-16T02:18:56;13.00;99.90
60860;DHT22;46694;54.382;9.708;2022-10-16T02:21:55;13.00;99.90
60860;DHT22;46694;54.382;9.708;2022-10-16T02:27:55;13.00;99.90
60860;DHT22;46694;54.382;9.708;2022-10-16T02:31:10;13.00;99.90
60860;DHT22;46694;54.382;9.708;2022-10-16T02:33:52;13.00;99.90
60860;DHT22;46694;54.382;9.708;2022-10-16T02:36:33;12.90;99.90
60860;DHT22;46694;54.382;9.708;2022-10-16T02:39:13;12.90;99.90
60860;DHT22;46694;54.382;9.708;2022-10-16T02:41:53;12.90;99.90
60860;DHT22;46694;54.382;9.708;2022-10-16T02:44:33;12.90;99.90
60860;DHT22;46694;54.382;9.708;2022-10-16T02:47:13;12.90;99.90
60860;DHT22;46694;54.382;9.708;2022-10-16T02:49:53;12.90;99.90
60860;DHT22;46694;54.382;9.708;2022-10-16T02:52:32;12.90;99.90
60860;DHT22;46694;54.382;9.708;2022-10-16T02:55:12;12.90;99.90
60860;DHT22;46694;54.382;9.708;2022-10-16T02:57:52;12.80;99.90
60860;DHT22;46694;54.382;9.708;2022-10-16T03:00:31;12.80;99.90
60860;DHT22;46694;54.382;9.708;2022-10-16T03:03:11;12.80;99.90
60860;DHT22;46694;54.382;9.708;2022-10-16T03:05:51;12.80;99.90
60860;DHT22;46694;54.382;9.708;2022-10-16T03:08:30;12.80;99.90
60860;DHT22;46694;54.382;9.708;2022-10-16T03:11:09;12.70;99.90
60860;DHT22;46694;54.382;9.708;2022-10-16T03:13:49;12.70;99.90
60860;DHT22;46694;54.382;9.708;2022-10-16T03:16:29;12.70;99.90
60860;DHT22;46694;54.382;9.708;2022-10-16T03:19:08;12.70;99.90
60860;DHT22;46694;54.382;9.708;2022-10-16T03:21:48;12.70;99.90
60860;DHT22;46694;54.382;9.708;2022-10-16T03:24:27;12.70;99.90
60860;DHT22;46694;54.382;9.708;2022-10-16T03:27:07;12.70;99.90
60860;DHT22;46694;54.382;9.708;2022-10-16T03:29:47;12.70;99.90
60860;DHT22;46694;54.382;9.708;2022-10-16T03:32:26;12.70;99.90
60860;DHT22;46694;54.382;9.708;2022-10-16T03:35:07;12.70;99.90
60860;DHT22;46694;54.382;9.708;2022-10-16T03:37:47;12.70;99.90
60860;DHT22;46694;54.382;9.708;2022-10-16T03:40:26;12.60;99.90
60860;DHT22;46694;54.382;9.708;2022-10-16T03:43:06;12.60;99.90
60860;DHT22;46694;54.382;9.708;2022-10-16T03:45:46;12.60;99.90
60860;DHT22;46694;54.382;9.708;2022-10-16T03:48:25;12.60;99.90
60860;DHT22;46694;54.382;9.708;2022-10-16T03:51:05;12.60;99.90
60860;DHT22;46694;54.382;9.708;2022-10-16T03:53:44;12.60;99.90
60860;DHT22;46694;54.382;9.708;2022-10-16T03:56:24;12.50;99.90
60860;DHT22;46694;54.382;9.708;2022-10-16T03:59:04;12.60;99.90
60860;DHT22;46694;54.382;9.708;2022-10-16T04:01:43;12.50;99.90
60860;DHT22;46694;54.382;9.708;2022-10-16T04:04:22;12.50;99.90
60860;DHT22;46694;54.382;9.708;2022-10-16T04:07:02;12.50;99.90
60860;DHT22;46694;54.382;9.708;2022-10-16T04:09:41;12.50;99.90
60860;DHT22;46694;54.382;9.708;2022-10-16T04:12:21;12.50;99.90
60860;DHT22;46694;54.382;9.708;2022-10-16T04:15:01;12.40;99.90
60860;DHT22;46694;54.382;9.708;2022-10-16T04:17:40;12.40;99.90
60860;DHT22;46694;54.382;9.708;2022-10-16T04:20:20;12.40;99.90
60860;DHT22;46694;54.382;9.708;2022-10-16T04:22:59;12.40;99.90
60860;DHT22;46694;54.382;9.708;2022-10-16T04:25:39;12.40;99.90
60860;DHT22;46694;54.382;9.708;2022-10-16T04:28:19;12.40;99.90
60860;DHT22;46694;54.382;9.708;2022-10-16T04:30:58;12.40;99.90
60860;DHT22;46694;54.382;9.708;2022-10-16T04:33:38;12.40;99.90
60860;DHT22;46694;54.382;9.708;2022-10-16T04:36:18;12.40;99.90
60860;DHT22;46694;54.382;9.708;2022-10-16T04:38:57;12.40;99.90
60860;DHT22;46694;54.382;9.708;2022-10-16T04:41:37;12.40;99.90
60860;DHT22;46694;54.382;9.708;2022-10-16T04:44:16;12.40;99.90
60860;DHT22;46694;54.382;9.708;2022-10-16T04:46:56;12.50;99.90
60860;DHT22;46694;54.382;9.708;2022-10-16T04:49:35;12.50;99.90
60860;DHT22;46694;54.382;9.708;2022-10-16T04:52:15;12.50;99.90
60860;DHT22;46694;54.382;9.708;2022-10-16T04:54:55;12.50;99.90
60860;DHT22;46694;54.382;9.708;2022-10-16T04:57:39;12.50;99.90
60860;DHT22;46694;54.382;9.708;2022-10-16T05:00:19;12.50;99.90
60860;DHT22;46694;54.382;9.708;2022-10-16T05:02:59;12.50;99.90
60860;DHT22;46694;54.382;9.708;2022-10-16T05:05:44;12.50;99.90
60860;DHT22;46694;54.382;9.708;2022-10-16T05:08:24;12.50;99.90
60860;DHT22;46694;54.382;9.708;2022-10-16T05:11:04;12.50;99.90
60860;DHT22;46694;54.382;9.708;2022-10-16T05:13:43;12.50;99.90
60860;DHT22;46694;54.382;9.708;2022-10-16T05:16:23;12.60;99.90
60860;DHT22;46694;54.382;9.708;2022-10-16T05:19:02;12.60;99.90
60860;DHT22;46694;54.382;9.708;2022-10-16T05:21:42;12.60;99.90
60860;DHT22;46694;54.382;9.708;2022-10-16T05:24:21;12.60;99.90
60860;DHT22;46694;54.382;9.708;2022-10-16T05:27:01;12.60;99.90
60860;DHT22;46694;54.382;9.708;2022-10-16T05:29:41;12.60;99.90
60860;DHT22;46694;54.382;9.708;2022-10-16T05:32:20;12.60;99.90
60860;DHT22;46694;54.382;9.708;2022-10-16T05:34:59;12.60;99.90
60860;DHT22;46694;54.382;9.708;2022-10-16T05:37:40;12.70;99.90
60860;DHT22;46694;54.382;9.708;2022-10-16T05:40:19;12.70;99.90
60860;DHT22;46694;54.382;9.708;2022-10-16T05:42:59;12.70;99.90
60860;DHT22;46694;54.382;9.708;2022-10-16T05:45:38;12.70;99.90
60860;DHT22;46694;54.382;9.708;2022-10-16T05:48:18;12.70;99.90
60860;DHT22;46694;54.382;9.708;2022-10-16T05:53:39;12.70;99.90
60860;DHT22;46694;54.382;9.708;2022-10-16T05:56:19;12.70;99.90
60860;DHT22;46694;54.382;9.708;2022-10-16T05:58:59;12.70;99.90
60860;DHT22;46694;54.382;9.708;2022-10-16T06:01:38;12.70;99.90
60860;DHT22;46694;54.382;9.708;2022-10-16T06:04:18;12.70;99.90
60860;DHT22;46694;54.382;9.708;2022-10-16T06:06:58;12.70;99.90
60860;DHT22;46694;54.382;9.708;2022-10-16T06:09:41;12.60;99.90
60860;DHT22;46694;54.382;9.708;2022-10-16T06:12:21;12.60;99.90
60860;DHT22;46694;54.382;9.708;2022-10-16T06:15:00;12.60;99.90
60860;DHT22;46694;54.382;9.708;2022-10-16T06:17:40;12.60;99.90
60860;DHT22;46694;54.382;9.708;2022-10-16T06:20:20;12.60;99.90
60860;DHT22;46694;54.382;9.708;2022-10-16T06:22:59;12.50;99.90
60860;DHT22;46694;54.382;9.708;2022-10-16T06:25:39;12.50;99.90
60860;DHT22;46694;54.382;9.708;2022-10-16T06:28:18;12.50;99.90
60860;DHT22;46694;54.382;9.708;2022-10-16T06:30:59;12.50;99.90
60860;DHT22;46694;54.382;9.708;2022-10-16T06:33:40;12.50;99.90
60860;DHT22;46694;54.382;9.708;2022-10-16T06:36:20;12.50;99.90
60860;DHT22;46694;54.382;9.708;2022-10-16T06:39:00;12.50;99.90
60860;DHT22;46694;54.382;9.708;2022-10-16T06:41:39;12.60;99.90
60860;DHT22;46694;54.382;9.708;2022-10-16T06:44:19;12.60;99.90
60860;DHT22;46694;54.382;9.708;2022-10-16T06:46:58;12.60;99.90
60860;DHT22;46694;54.382;9.708;2022-10-16T06:49:38;12.60;99.90
60860;DHT22;46694;54.382;9.708;2022-10-16T06:52:17;12.60;99.90
60860;DHT22;46694;54.382;9.708;2022-10-16T06:54:57;12.60;99.90
60860;DHT22;46694;54.382;9.708;2022-10-16T06:57:37;12.60;99.90
60860;DHT22;46694;54.382;9.708;2022-10-16T07:00:16;12.60;99.90
60860;DHT22;46694;54.382;9.708;2022-10-16T07:02:56;12.60;99.90
60860;DHT22;46694;54.382;9.708;2022-10-16T07:05:40;12.70;99.90
60860;DHT22;46694;54.382;9.708;2022-10-16T07:08:20;12.70;99.90
60860;DHT22;46694;54.382;9.708;2022-10-16T07:11:01;12.70;99.90
60860;DHT22;46694;54.382;9.708;2022-10-16T07:13:46;12.80;99.90
60860;DHT22;46694;54.382;9.708;2022-10-16T07:16:28;13.00;99.90
60860;DHT22;46694;54.382;9.708;2022-10-16T07:19:09;13.10;99.90
60860;DHT22;46694;54.382;9.708;2022-10-16T07:21:50;13.30;99.90
60860;DHT22;46694;54.382;9.708;2022-10-16T07:24:30;13.50;99.90
60860;DHT22;46694;54.382;9.708;2022-10-16T07:27:09;13.70;99.90
60860;DHT22;46694;54.382;9.708;2022-10-16T07:29:49;13.70;99.90
60860;DHT22;46694;54.382;9.708;2022-10-16T07:32:29;13.80;99.90
60860;DHT22;46694;54.382;9.708;2022-10-16T07:35:08;13.90;99.90
60860;DHT22;46694;54.382;9.708;2022-10-16T07:37:48;14.10;99.90
60860;DHT22;46694;54.382;9.708;2022-10-16T07:40:28;14.30;99.90
60860;DHT22;46694;54.382;9.708;2022-10-16T07:43:07;14.50;99.90
60860;DHT22;46694;54.382;9.708;2022-10-16T07:45:48;14.80;99.90
60860;DHT22;46694;54.382;9.708;2022-10-16T07:48:31;14.90;99.90
60860;DHT22;46694;54.382;9.708;2022-10-16T07:51:12;14.90;99.90
60860;DHT22;46694;54.382;9.708;2022-10-16T07:53:54;15.10;99.90
60860;DHT22;46694;54.382;9.708;2022-10-16T07:56:34;15.40;99.90
60860;DHT22;46694;54.382;9.708;2022-10-16T07:59:13;15.50;99.90
60860;DHT22;46694;54.382;9.708;2022-10-16T08:01:53;15.70;99.90
60860;DHT22;46694;54.382;9.708;2022-10-16T08:04:33;15.80;99.90
60860;DHT22;46694;54.382;9.708;2022-10-16T08:07:12;16.10;99.90
60860;DHT22;46694;54.382;9.708;2022-10-16T08:09:52;16.20;99.90
60860;DHT22;46694;54.382;9.708;2022-10-16T08:12:32;16.30;99.90
60860;DHT22;46694;54.382;9.708;2022-10-16T08:15:12;16.40;99.90
60860;DHT22;46694;54.382;9.708;2022-10-16T08:18:00;16.50;99.90
60860;DHT22;46694;54.382;9.708;2022-10-16T08:20:41;16.60;99.90
60860;DHT22;46694;54.382;9.708;2022-10-16T08:23:21;16.70;99.90
60860;DHT22;46694;54.382;9.708;2022-10-16T08:26:06;16.80;99.90
60860;DHT22;46694;54.382;9.708;2022-10-16T08:28:50;16.80;99.90
60860;DHT22;46694;54.382;9.708;2022-10-16T08:31:30;17.00;99.90
60860;DHT22;46694;54.382;9.708;2022-10-16T08:34:10;17.20;99.90
60860;DHT22;46694;54.382;9.708;2022-10-16T08:36:52;17.40;99.90
60860;DHT22;46694;54.382;9.708;2022-10-16T08:39:32;17.50;99.90
60860;DHT22;46694;54.382;9.708;2022-10-16T08:51:31;18.10;99.90
60860;DHT22;46694;54.382;9.708;2022-10-16T08:54:20;18.10;99.90
60860;DHT22;46694;54.382;9.708;2022-10-16T08:57:20;18.20;99.90
60860;DHT22;46694;54.382;9.708;2022-10-16T09:00:12;18.30;99.90
60860;DHT22;46694;54.382;9.708;2022-10-16T09:21:44;18.90;99.90
60860;DHT22;46694;54.382;9.708;2022-10-16T09:24:26;18.90;99.90
60860;DHT22;46694;54.382;9.708;2022-10-16T09:27:11;18.90;99.90
60860;DHT22;46694;54.382;9.708;2022-10-16T09:29:51;18.90;99.90
60860;DHT22;46694;54.382;9.708;2022-10-16T09:32:31;18.80;99.90
60860;DHT22;46694;54.382;9.708;2022-10-16T09:35:20;18.80;99.90
60860;DHT22;46694;54.382;9.708;2022-10-16T09:38:04;18.70;99.90
60860;DHT22;46694;54.382;9.708;2022-10-16T09:40:45;18.70;99.90
60860;DHT22;46694;54.382;9.708;2022-10-16T09:43:34;18.60;99.90
60860;DHT22;46694;54.382;9.708;2022-10-16T09:46:24;18.40;99.90
60860;DHT22;46694;54.382;9.708;2022-10-16T09:49:25;18.50;99.90
60860;DHT22;46694;54.382;9.708;2022-10-16T09:52:15;18.60;99.90
60860;DHT22;46694;54.382;9.708;2022-10-16T09:54:58;18.70;99.90
60860;DHT22;46694;54.382;9.708;2022-10-16T09:57:53;18.70;99.90
60860;DHT22;46694;54.382;9.708;2022-10-16T10:00:33;18.50;99.90
60860;DHT22;46694;54.382;9.708;2022-10-16T10:03:13;18.30;99.90
60860;DHT22;46694;54.382;9.708;2022-10-16T10:05:52;18.00;99.90
60860;DHT22;46694;54.382;9.708;2022-10-16T10:08:32;17.80;99.90
60860;DHT22;46694;54.382;9.708;2022-10-16T10:11:12;17.60;99.90
60860;DHT22;46694;54.382;9.708;2022-10-16T10:13:51;17.50;99.90
60860;DHT22;46694;54.382;9.708;2022-10-16T10:16:31;17.40;99.90
60860;DHT22;46694;54.382;9.708;2022-10-16T10:19:22;17.40;99.90
60860;DHT22;46694;54.382;9.708;2022-10-16T10:22:16;17.50;99.90
60860;DHT22;46694;54.382;9.708;2022-10-16T10:25:21;17.70;99.90
60860;DHT22;46694;54.382;9.708;2022-10-16T10:34:31;18.20;99.90
60860;DHT22;46694;54.382;9.708;2022-10-16T10:41:40;18.30;99.90
60860;DHT22;46694;54.382;9.708;2022-10-16T10:54:14;18.50;99.90
60860;DHT22;46694;54.382;9.708;2022-10-16T10:57:02;18.50;99.90
60860;DHT22;46694;54.382;9.708;2022-10-16T11:02:44;18.40;99.90
60860;DHT22;46694;54.382;9.708;2022-10-16T11:05:35;18.40;99.90
60860;DHT22;46694;54.382;9.708;2022-10-16T11:08:26;18.30;99.90
60860;DHT22;46694;54.382;9.708;2022-10-16T11:11:52;18.20;99.90
60860;DHT22;46694;54.382;9.708;2022-10-16T11:15:01;18.20;99.90
60860;DHT22;46694;54.382;9.708;2022-10-16T11:18:21;18.20;99.90
60860;DHT22;46694;54.382;9.708;2022-10-16T11:21:07;18.20;99.90
60860;DHT22;46694;54.382;9.708;2022-10-16T11:24:04;18.20;99.90
60860;DHT22;46694;54.382;9.708;2022-10-16T11:26:53;18.10;99.90
60860;DHT22;46694;54.382;9.708;2022-10-16T11:29:35;18.10;99.90
60860;DHT22;46694;54.382;9.708;2022-10-16T11:38:41;17.80;99.90
60860;DHT22;46694;54.382;9.708;2022-10-16T11:41:36;17.90;99.90
60860;DHT22;46694;54.382;9.708;2022-10-16T11:44:41;17.90;99.90
60860;DHT22;46694;54.382;9.708;2022-10-16T11:47:31;18.00;99.90
60860;DHT22;46694;54.382;9.708;2022-10-16T11:50:25;18.00;99.90
60860;DHT22;46694;54.382;9.708;2022-10-16T11:56:48;17.80;99.90
60860;DHT22;46694;54.382;9.708;2022-10-16T11:59:43;17.80;99.90
60860;DHT22;46694;54.382;9.708;2022-10-16T12:05:23;17.80;99.90
60860;DHT22;46694;54.382;9.708;2022-10-16T12:08:11;17.90;99.90
60860;DHT22;46694;54.382;9.708;2022-10-16T12:11:51;17.80;99.90
60860;DHT22;46694;54.382;9.708;2022-10-16T12:19:32;18.10;99.90
60860;DHT22;46694;54.382;9.708;2022-10-16T12:22:18;18.10;99.90
60860;DHT22;46694;54.382;9.708;2022-10-16T12:24:58;18.20;99.90
60860;DHT22;46694;54.382;9.708;2022-10-16T12:27:38;18.10;99.90
60860;DHT22;46694;54.382;9.708;2022-10-16T12:30:22;18.20;99.70
60860;DHT22;46694;54.382;9.708;2022-10-16T12:36:27;18.10;99.50
60860;DHT22;46694;54.382;9.708;2022-10-16T12:39:24;18.00;99.80
60860;DHT22;46694;54.382;9.708;2022-10-16T12:42:19;18.00;99.90
60860;DHT22;46694;54.382;9.708;2022-10-16T12:45:34;18.00;99.80
60860;DHT22;46694;54.382;9.708;2022-10-16T12:48:21;18.00;99.50
60860;DHT22;46694;54.382;9.708;2022-10-16T12:54:12;18.10;99.30
60860;DHT22;46694;54.382;9.708;2022-10-16T13:02:58;17.80;99.30
60860;DHT22;46694;54.382;9.708;2022-10-16T13:12:25;17.70;99.90
60860;DHT22;46694;54.382;9.708;2022-10-16T13:18:21;17.40;99.90
60860;DHT22;46694;54.382;9.708;2022-10-16T13:27:54;17.20;99.90
60860;DHT22;46694;54.382;9.708;2022-10-16T13:30:52;17.20;99.90
60860;DHT22;46694;54.382;9.708;2022-10-16T13:33:36;17.20;99.90
60860;DHT22;46694;54.382;9.708;2022-10-16T13:39:28;17.20;99.90
60860;DHT22;46694;54.382;9.708;2022-10-16T13:42:25;17.20;99.90
60860;DHT22;46694;54.382;9.708;2022-10-16T13:45:21;17.10;99.90
60860;DHT22;46694;54.382;9.708;2022-10-16T13:48:05;16.90;99.90
60860;DHT22;46694;54.382;9.708;2022-10-16T13:51:05;16.90;99.90
60860;DHT22;46694;54.382;9.708;2022-10-16T13:53:56;16.90;99.90
60860;DHT22;46694;54.382;9.708;2022-10-16T13:56:39;16.90;99.90
60860;DHT22;46694;54.382;9.708;2022-10-16T13:59:42;16.90;99.90
60860;DHT22;46694;54.382;9.708;2022-10-16T14:02:33;17.00;99.90
60860;DHT22;46694;54.382;9.708;2022-10-16T14:05:14;17.00;99.90
60860;DHT22;46694;54.382;9.708;2022-10-16T14:07:55;17.00;99.90
60860;DHT22;46694;54.382;9.708;2022-10-16T14:10:35;16.90;99.90
60860;DHT22;46694;54.382;9.708;2022-10-16T14:13:19;16.90;99.90
60860;DHT22;46694;54.382;9.708;2022-10-16T14:16:06;16.90;99.90
60860;DHT22;46694;54.382;9.708;2022-10-16T14:19:12;16.90;99.90
60860;DHT22;46694;54.382;9.708;2022-10-16T14:22:00;16.80;99.90
60860;DHT22;46694;54.382;9.708;2022-10-16T14:24:40;16.80;99.90
60860;DHT22;46694;54.382;9.708;2022-10-16T14:34:30;16.70;99.80
60860;DHT22;46694;54.382;9.708;2022-10-16T14:37:28;16.70;99.80
60860;DHT22;46694;54.382;9.708;2022-10-16T14:40:14;16.60;99.90
60860;DHT22;46694;54.382;9.708;2022-10-16T14:42:54;16.60;99.90
60860;DHT22;46694;54.382;9.708;2022-10-16T14:45:35;16.50;99.90
60860;DHT22;46694;54.382;9.708;2022-10-16T14:48:17;16.50;99.90
60860;DHT22;46694;54.382;9.708;2022-10-16T14:50:57;16.40;99.90
60860;DHT22;46694;54.382;9.708;2022-10-16T14:53:37;16.40;99.90
60860;DHT22;46694;54.382;9.708;2022-10-16T14:59:41;16.30;99.90
60860;DHT22;46694;54.382;9.708;2022-10-16T15:02:43;16.20;99.90
60860;DHT22;46694;54.382;9.708;2022-10-16T15:05:25;16.20;99.90
60860;DHT22;46694;54.382;9.708;2022-10-16T15:08:06;16.20;99.90
60860;DHT22;46694;54.382;9.708;2022-10-16T15:10:46;16.10;99.90
60860;DHT22;46694;54.382;9.708;2022-10-16T15:13:25;16.10;99.90
60860;DHT22;46694;54.382;9.708;2022-10-16T15:16:06;16.10;99.90
60860;DHT22;46694;54.382;9.708;2022-10-16T15:18:48;16.00;99.90
60860;DHT22;46694;54.382;9.708;2022-10-16T15:21:30;15.90;99.90
60860;DHT22;46694;54.382;9.708;2022-10-16T15:24:14;15.90;99.90
60860;DHT22;46694;54.382;9.708;2022-10-16T15:26:54;15.80;99.90
60860;DHT22;46694;54.382;9.708;2022-10-16T15:29:34;15.80;99.90
60860;DHT22;46694;54.382;9.708;2022-10-16T15:32:13;15.80;99.90
60860;DHT22;46694;54.382;9.708;2022-10-16T15:34:53;15.80;99.90
60860;DHT22;46694;54.382;9.708;2022-10-16T15:37:33;15.80;99.90
60860;DHT22;46694;54.382;9.708;2022-10-16T15:40:12;15.70;99.90
60860;DHT22;46694;54.382;9.708;2022-10-16T15:42:52;15.70;99.90
60860;DHT22;46694;54.382;9.708;2022-10-16T15:45:31;15.60;99.90
60860;DHT22;46694;54.382;9.708;2022-10-16T15:48:12;15.60;99.90
60860;DHT22;46694;54.382;9.708;2022-10-16T15:50:52;15.60;99.90
60860;DHT22;46694;54.382;9.708;2022-10-16T15:53:32;15.50;99.90
60860;DHT22;46694;54.382;9.708;2022-10-16T15:56:14;15.50;99.90
60860;DHT22;46694;54.382;9.708;2022-10-16T15:58:53;15.40;99.90
60860;DHT22;46694;54.382;9.708;2022-10-16T16:01:34;15.40;99.90
60860;DHT22;46694;54.382;9.708;2022-10-16T16:04:14;15.30;99.90
60860;DHT22;46694;54.382;9.708;2022-10-16T16:06:55;15.20;99.90
60860;DHT22;46694;54.382;9.708;2022-10-16T16:09:35;15.20;99.90
60860;DHT22;46694;54.382;9.708;2022-10-16T16:12:15;15.10;99.90
60860;DHT22;46694;54.382;9.708;2022-10-16T16:14:55;15.10;99.90
60860;DHT22;46694;54.382;9.708;2022-10-16T16:17:35;15.00;99.90
60860;DHT22;46694;54.382;9.708;2022-10-16T16:20:15;15.00;99.90
60860;DHT22;46694;54.382;9.708;2022-10-16T16:22:54;14.90;99.90
60860;DHT22;46694;54.382;9.708;2022-10-16T16:25:34;14.90;99.90
60860;DHT22;46694;54.382;9.708;2022-10-16T16:28:13;14.80;99.90
60860;DHT22;46694;54.382;9.708;2022-10-16T16:30:53;14.80;99.90
60860;DHT22;46694;54.382;9.708;2022-10-16T16:33:33;14.70;99.90
60860;DHT22;46694;54.382;9.708;2022-10-16T16:36:13;14.70;99.90
60860;DHT22;46694;54.382;9.708;2022-10-16T16:38:52;14.60;99.90
60860;DHT22;46694;54.382;9.708;2022-10-16T16:41:32;14.60;99.90
60860;DHT22;46694;54.382;9.708;2022-10-16T16:44:12;14.60;99.90
60860;DHT22;46694;54.382;9.708;2022-10-16T16:46:52;14.50;99.90
60860;DHT22;46694;54.382;9.708;2022-10-16T16:49:33;14.50;99.90
60860;DHT22;46694;54.382;9.708;2022-10-16T16:52:14;14.40;99.90
60860;DHT22;46694;54.382;9.708;2022-10-16T16:54:53;14.40;99.90
60860;DHT22;46694;54.382;9.708;2022-10-16T16:57:33;14.40;99.90
60860;DHT22;46694;54.382;9.708;2022-10-16T17:00:13;14.30;99.90
60860;DHT22;46694;54.382;9.708;2022-10-16T17:02:53;14.30;99.90
60860;DHT22;46694;54.382;9.708;2022-10-16T17:05:32;14.30;99.90
60860;DHT22;46694;54.382;9.708;2022-10-16T17:08:12;14.20;99.90
60860;DHT22;46694;54.382;9.708;2022-10-16T17:10:52;14.20;99.90
60860;DHT22;46694;54.382;9.708;2022-10-16T17:13:34;14.20;99.90
60860;DHT22;46694;54.382;9.708;2022-10-16T17:16:16;14.20;99.90
60860;DHT22;46694;54.382;9.708;2022-10-16T17:18:59;14.20;99.90
60860;DHT22;46694;54.382;9.708;2022-10-16T17:21:40;14.10;99.90
60860;DHT22;46694;54.382;9.708;2022-10-16T17:24:20;14.10;99.90
60860;DHT22;46694;54.382;9.708;2022-10-16T17:27:00;14.10;99.90
60860;DHT22;46694;54.382;9.708;2022-10-16T17:29:40;14.10;99.90
60860;DHT22;46694;54.382;9.708;2022-10-16T17:32:20;14.10;99.90
60860;DHT22;46694;54.382;9.708;2022-10-16T17:35:00;14.10;99.90
60860;DHT22;46694;54.382;9.708;2022-10-16T17:37:39;14.00;99.90
60860;DHT22;46694;54.382;9.708;2022-10-16T17:40:20;14.00;99.90
60860;DHT22;46694;54.382;9.708;2022-10-16T17:43:00;14.00;99.90
60860;DHT22;46694;54.382;9.708;2022-10-16T17:45:40;14.00;99.90
60860;DHT22;46694;54.382;9.708;2022-10-16T17:48:20;13.90;99.90
60860;DHT22;46694;54.382;9.708;2022-10-16T17:51:03;13.90;99.90
60860;DHT22;46694;54.382;9.708;2022-10-16T17:53:48;13.90;99.90
60860;DHT22;46694;54.382;9.708;2022-10-16T17:56:29;13.90;99.90
60860;DHT22;46694;54.382;9.708;2022-10-16T17:59:09;13.80;99.90
60860;DHT22;46694;54.382;9.708;2022-10-16T18:01:50;13.80;99.90
60860;DHT22;46694;54.382;9.708;2022-10-16T18:04:29;13.70;99.90
60860;DHT22;46694;54.382;9.708;2022-10-16T18:07:09;13.70;99.90
60860;DHT22;46694;54.382;9.708;2022-10-16T18:09:49;13.60;99.90
60860;DHT22;46694;54.382;9.708;2022-10-16T18:12:28;13.70;99.90
60860;DHT22;46694;54.382;9.708;2022-10-16T18:15:08;13.60;99.90
60860;DHT22;46694;54.382;9.708;2022-10-16T18:17:49;13.60;99.90
60860;DHT22;46694;54.382;9.708;2022-10-16T18:20:28;13.60;99.90
60860;DHT22;46694;54.382;9.708;2022-10-16T18:23:08;13.50;99.90
60860;DHT22;46694;54.382;9.708;2022-10-16T18:25:50;13.50;99.90
60860;DHT22;46694;54.382;9.708;2022-10-16T18:28:30;13.50;99.90
60860;DHT22;46694;54.382;9.708;2022-10-16T18:31:14;13.50;99.90
60860;DHT22;46694;54.382;9.708;2022-10-16T18:33:54;13.50;99.90
60860;DHT22;46694;54.382;9.708;2022-10-16T18:36:34;13.50;99.90
60860;DHT22;46694;54.382;9.708;2022-10-16T18:39:14;13.50;99.90
60860;DHT22;46694;54.382;9.708;2022-10-16T18:41:56;13.40;99.90
60860;DHT22;46694;54.382;9.708;2022-10-16T18:44:37;13.40;99.90
60860;DHT22;46694;54.382;9.708;2022-10-16T18:47:17;13.40;99.90
60860;DHT22;46694;54.382;9.708;2022-10-16T18:49:56;13.40;99.90
60860;DHT22;46694;54.382;9.708;2022-10-16T18:52:36;13.40;99.90
60860;DHT22;46694;54.382;9.708;2022-10-16T18:55:16;13.40;99.90
60860;DHT22;46694;54.382;9.708;2022-10-16T18:57:55;13.40;99.90
60860;DHT22;46694;54.382;9.708;2022-10-16T19:04:11;13.40;99.90
60860;DHT22;46694;54.382;9.708;2022-10-16T19:06:52;13.30;99.90
60860;DHT22;46694;54.382;9.708;2022-10-16T19:09:32;13.30;99.90
60860;DHT22;46694;54.382;9.708;2022-10-16T19:12:11;13.30;99.90
60860;DHT22;46694;54.382;9.708;2022-10-16T19:14:51;13.30;99.90
60860;DHT22;46694;54.382;9.708;2022-10-16T19:17:31;13.30;99.90
60860;DHT22;46694;54.382;9.708;2022-10-16T19:20:10;13.30;99.90
60860;DHT22;46694;54.382;9.708;2022-10-16T19:22:50;13.30;99.90
60860;DHT22;46694;54.382;9.708;2022-10-16T19:25:36;13.30;99.90